Snow/Ice From: 23-10-2018 22:46 Until: 24-10-2018 08:00 warning for: Snow/Ice Level: Yellow info button
suomi:
Liikennesää: Ajokeli on huono tienpintojen jäätymisen vuoksi.

svenska:
Trafikvädret: Väglaget är dåligt p.g.a. tillfrysning av vägytor.

english:
Traffic weather warning: Bad road conditions are expected because of ice-covered roads. 


Thunder radar more information blitzortung!


Löydät sääaseman tiedot myös:

European Weather Network

Finland Weather Exchange

Weather Underground

AWEKAS



Weather Underground säähistoriasivu

Päivittäin yhteenveto Marraskuu 27, 2017 Yksiköt:  Metriset    Englantilaiset   Molemmat
« Edellinen Päivä
Seuraava Päivä »
Päivittäin Viikoittain Kuukausittain Vuosittain Mukautettu
  Korkea: Matala: Keskiarvo:
Lämpötila: -17.8 °C 0.7 °C 2.1 °C
Kastepiste: -17.8 °C 0 °C 1.5 °C
Kosteus: Humidity % 95 % 95 %
Tuulen nopeus: 0 km/h 0 km/h 2.3 km/h
Tuulenpuuska: 0 km/h - -
Tuuli:- - South
Ilmanpaine: 0 hPa 1000.6 hPa -
Sade: 0 mm    
Historical Graphs
 
 
Taulukkotiedot Marraskuu 27, 2017
Aika Lämpötila Kastepiste Ilmanpaine Tuuli Tuulen nopeus Tuulenpuuska Kosteus Sademäärä (tunneittain)
-17.8 °C -17.8 °C 0 hPa Calm     Humidity % 0 mm
00:00 1.2 °C 0.5 °C 1004.6 hPa South 3.2 km/h 11.3 km/h 95 % 0 mm
00:15 1.1 °C 0.3 °C 1004.6 hPa South 3.2 km/h 16.1 km/h 95 % 0 mm
00:30 1.1 °C 0.3 °C 1004.6 hPa South 1.6 km/h 9.7 km/h 95 % 0 mm
00:45 1 °C 0.3 °C 1004.6 hPa SSW 1.6 km/h 8 km/h 95 % 0 mm
01:00 0.9 °C 0.2 °C 1004.6 hPa SSW 1.6 km/h 9.7 km/h 95 % 0 mm
01:15 0.9 °C 0.2 °C 1004.6 hPa South 3.2 km/h 14.5 km/h 95 % 0 mm
01:30 0.7 °C 0.1 °C 1004.6 hPa SSW 1.6 km/h 8 km/h 95 % 0 mm
01:45 0.7 °C 0.1 °C 1004.6 hPa South 1.6 km/h 9.7 km/h 96 % 0 mm
02:00 0.7 °C 0 °C 1004.6 hPa SSW 3.2 km/h 8 km/h 95 % 0 mm
02:15 0.8 °C 0.1 °C 1004.6 hPa SSW 4.8 km/h 12.9 km/h 95 % 0 mm
02:30 0.8 °C 0.1 °C 1004.6 hPa SSW 3.2 km/h 9.7 km/h 95 % 0 mm
02:45 0.8 °C 0.1 °C 1004.6 hPa South 4.8 km/h 9.7 km/h 95 % 0 mm
03:15 0.9 °C 0.2 °C 1004.6 hPa SSW 3.2 km/h 11.3 km/h 95 % 0 mm
03:30 1 °C 0.3 °C 1004.6 hPa SSW 1.6 km/h 6.4 km/h 95 % 0 mm
03:45 1.1 °C 0.3 °C 1004.6 hPa South 1.6 km/h 8 km/h 95 % 0 mm
04:00 0.9 °C 0.2 °C 1004.6 hPa Calm   3.2 km/h 95 % 0 mm
04:15 0.8 °C 0.1 °C 1004.6 hPa SSE 1.6 km/h 8 km/h 95 % 0 mm
04:30 0.8 °C 0.1 °C 1004.6 hPa South 1.6 km/h 6.4 km/h 95 % 0 mm
04:45 0.8 °C 0.1 °C 1004.6 hPa Calm   3.2 km/h 95 % 0 mm
05:00 0.7 °C 0.2 °C 1004.6 hPa Calm     96 % 0 mm
05:15 0.7 °C 0.2 °C 1004.6 hPa South 1.6 km/h 8 km/h 96 % 0 mm
05:30 0.8 °C 0.3 °C 1004.6 hPa SSE 1.6 km/h 8 km/h 96 % 0 mm
05:45 0.9 °C 0.3 °C 1004.6 hPa SSE 1.6 km/h 8 km/h 96 % 0 mm
06:00 0.9 °C 0.4 °C 1004.6 hPa Calm   3.2 km/h 96 % 0 mm
06:15 1 °C 0.4 °C 1004.6 hPa SSW 1.6 km/h 8 km/h 96 % 0 mm
06:30 1.1 °C 0.5 °C 1004.6 hPa SSE 1.6 km/h 12.9 km/h 96 % 0 mm
06:45 1.1 °C 0.3 °C 1004.6 hPa SSE 1.6 km/h 11.3 km/h 95 % 0 mm
07:00 1.1 °C 0.4 °C 1004.3 hPa SSE 1.6 km/h 9.7 km/h 95 % 0 mm
07:15 1.2 °C 0.5 °C 1003.9 hPa East 1.6 km/h 6.4 km/h 95 % 0 mm
07:30 1.1 °C 0.4 °C 1003.9 hPa SSE 1.6 km/h 8 km/h 95 % 0 mm
07:45 1.1 °C 0.5 °C 1003.9 hPa Calm   6.4 km/h 96 % 0 mm
08:00 1.1 °C 0.5 °C 1003.9 hPa SE 1.6 km/h 8 km/h 96 % 0 mm
08:15 1.2 °C 0.7 °C 1003.9 hPa SSE 1.6 km/h 11.3 km/h 96 % 0 mm
08:30 1.3 °C 0.7 °C 1003.9 hPa SSE 1.6 km/h 11.3 km/h 96 % 0 mm
08:45 1.3 °C 0.8 °C 1003.6 hPa SSE 1.6 km/h 8 km/h 96 % 0 mm
09:00 1.4 °C 0.8 °C 1003.6 hPa SE 1.6 km/h 11.3 km/h 96 % 0 mm
09:15 1.4 °C 1 °C 1003.6 hPa Calm   6.4 km/h 97 % 0 mm
09:30 1.4 °C 1 °C 1003.6 hPa SE 1.6 km/h 11.3 km/h 97 % 0 mm
09:45 1.6 °C 1.1 °C 1003.3 hPa SE 1.6 km/h 8 km/h 97 % 0 mm
10:00 1.6 °C 1.2 °C 1003.3 hPa Calm   3.2 km/h 97 % 0 mm
10:15 1.8 °C 1.4 °C 1002.9 hPa SSE 1.6 km/h 12.9 km/h 97 % 0 mm
10:30 1.9 °C 1.5 °C 1002.9 hPa SE 1.6 km/h 8 km/h 97 % 0 mm
10:45 2.2 °C 1.7 °C 1002.9 hPa South 1.6 km/h 11.3 km/h 97 % 0 mm
11:00 2.3 °C 1.9 °C 1002.6 hPa SSE 1.6 km/h 9.7 km/h 97 % 0 mm
11:15 2.5 °C 2.1 °C 1002.6 hPa SSE 1.6 km/h 16.1 km/h 97 % 0 mm
11:30 2.7 °C 2.2 °C 1002.6 hPa South 3.2 km/h 19.3 km/h 97 % 0 mm
11:45 2.8 °C 2.3 °C 1002.6 hPa South 1.6 km/h 12.9 km/h 97 % 0 mm
12:00 2.9 °C 2.5 °C 1002.3 hPa South 3.2 km/h 11.3 km/h 97 % 0 mm
12:15 3.1 °C 2.6 °C 1002.3 hPa South 3.2 km/h 14.5 km/h 97 % 0 mm
12:30 3.2 °C 2.7 °C 1002.3 hPa South 3.2 km/h 17.7 km/h 97 % 0 mm
12:45 3.2 °C 2.8 °C 1001.9 hPa South 3.2 km/h 11.3 km/h 97 % 0 mm
13:00 3.3 °C 2.8 °C 1001.9 hPa SSE 3.2 km/h 17.7 km/h 97 % 0 mm
13:15 3.4 °C 3 °C 1001.9 hPa South 3.2 km/h 19.3 km/h 97 % 0 mm
13:30 3.4 °C 3 °C 1001.9 hPa SSE 3.2 km/h 12.9 km/h 97 % 0 mm
13:45 3.6 °C 3.1 °C 1001.9 hPa South 3.2 km/h 11.3 km/h 97 % 0 mm
14:00 3.7 °C 3.3 °C 1001.9 hPa South 4.8 km/h 20.9 km/h 97 % 0 mm
14:15 3.7 °C 3.2 °C 1001.9 hPa South 4.8 km/h 17.7 km/h 97 % 0 mm
14:30 3.7 °C 3.2 °C 1001.9 hPa South 1.6 km/h 6.4 km/h 97 % 0 mm
14:45 3.6 °C 3.2 °C 1001.6 hPa South 1.6 km/h 16.1 km/h 97 % 0 mm
15:00 3.5 °C 3.1 °C 1001.6 hPa SSE 1.6 km/h 9.7 km/h 97 % 0 mm
15:15 3.4 °C 3 °C 1001.6 hPa South 3.2 km/h 12.9 km/h 97 % 0 mm
15:30 3.5 °C 3.1 °C 1001.6 hPa South 3.2 km/h 16.1 km/h 97 % 0 mm
15:45 3.5 °C 3.1 °C 1001.6 hPa South 1.6 km/h 6.4 km/h 97 % 0 mm
16:00 3.4 °C 3 °C 1001.2 hPa SSE 1.6 km/h 12.9 km/h 97 % 0 mm
16:15 3.5 °C 3.1 °C 1001.2 hPa South 4.8 km/h 12.9 km/h 97 % 0 mm
16:30 3.6 °C 3.1 °C 1001.2 hPa SSE 3.2 km/h 14.5 km/h 97 % 0 mm
16:45 3.6 °C 3 °C 1001.2 hPa SSE 3.2 km/h 12.9 km/h 96 % 0 mm
17:00 3.6 °C 3 °C 1001.2 hPa SSE 3.2 km/h 12.9 km/h 96 % 0 mm
17:15 3.6 °C 3.1 °C 1001.2 hPa SSE 1.6 km/h 9.7 km/h 97 % 0 mm
17:30 3.6 °C 3.1 °C 1000.9 hPa SSE 3.2 km/h 8 km/h 97 % 0 mm
17:45 3.6 °C 3.1 °C 1001.2 hPa South 1.6 km/h 11.3 km/h 97 % 0 mm
18:00 3.5 °C 3.1 °C 1001.2 hPa South 3.2 km/h 24.1 km/h 97 % 0 mm
18:15 3.4 °C 3 °C 1000.9 hPa South 1.6 km/h 8 km/h 97 % 0 mm
18:30 3.4 °C 3 °C 1000.9 hPa South 1.6 km/h 8 km/h 97 % 0 mm
18:45 3.4 °C 3 °C 1000.9 hPa Calm   6.4 km/h 97 % 0 mm
19:00 3.4 °C 3 °C 1000.9 hPa SSE 1.6 km/h 11.3 km/h 97 % 0 mm
19:15 3.4 °C 3 °C 1000.9 hPa SSE 3.2 km/h 9.7 km/h 97 % 0 mm
19:30 3.3 °C 2.8 °C 1000.9 hPa South 4.8 km/h 16.1 km/h 97 % 0 mm
19:45 3.1 °C 2.6 °C 1000.6 hPa South 3.2 km/h 11.3 km/h 97 % 0 mm
20:00 2.9 °C 2.5 °C 1000.6 hPa SSE 1.6 km/h 8 km/h 97 % 0 mm
20:15 2.9 °C 2.5 °C 1000.6 hPa Calm   14.5 km/h 97 % 0 mm
20:30 3 °C 2.6 °C 1000.9 hPa South 3.2 km/h 11.3 km/h 97 % 0 mm
20:45 3 °C 2.6 °C 1000.9 hPa Calm   8 km/h 97 % 0 mm
21:00 3 °C 2.6 °C 1000.9 hPa South 3.2 km/h 11.3 km/h 97 % 0 mm
21:15 2.9 °C 2.5 °C 1000.9 hPa South 1.6 km/h 8 km/h 97 % 0 mm
21:30 2.9 °C 2.5 °C 1001.2 hPa South 1.6 km/h 6.4 km/h 97 % 0 mm
21:45 3.1 °C 2.6 °C 1001.2 hPa South 4.8 km/h 14.5 km/h 97 % 0 mm
22:00 3.1 °C 2.6 °C 1001.2 hPa SSW 3.2 km/h 9.7 km/h 97 % 0 mm
22:15 3.1 °C 2.6 °C 1001.2 hPa SSW 4.8 km/h 11.3 km/h 97 % 0 mm
22:30 3.1 °C 2.7 °C 1001.6 hPa SSW 1.6 km/h 8 km/h 97 % 0 mm
22:45 3.1 °C 2.6 °C 1001.6 hPa SSW 3.2 km/h 9.7 km/h 97 % 0 mm
23:00 3 °C 2.6 °C 1001.6 hPa South 3.2 km/h 12.9 km/h 97 % 0 mm
23:15 2.7 °C 2.3 °C 1001.9 hPa SSW 1.6 km/h 9.7 km/h 97 % 0 mm
23:30 2.4 °C 2 °C 1001.9 hPa SSW 1.6 km/h 8 km/h 97 % 0 mm
23:45 2.1 °C 1.7 °C 1002.3 hPa SSW 3.2 km/h 8 km/h 97 % 0 mm
Esan sääasema
Terveisin Weather Underground - 2.75 mb

Alkuperäinen skripti  Jim McMurry - jmcmurry@mwt.net Sovitettu myös templatelle  Wim van der Kuil - Leuven-Template.eu

Laitteet joita käytämme:

Sääasema
Davis VP2

Sääasemaohjelma
Cumulus

Sääaseman tietokone
Asus EeePC

Palveluntarjoaja
Suncomet

Davis VP2

Cumulus

Asus EeePC

Suncomet